sensor_id;sensor_type;location;lat;lon;timestamp;P1;durP1;ratioP1;P2;durP2;ratioP2
22164;SDS011;11248;52.512;13.520;2023-05-20T00:00:40;2.42;;;1.92;;
22164;SDS011;11248;52.512;13.520;2023-05-20T00:03:06;3.22;;;2.42;;
22164;SDS011;11248;52.512;13.520;2023-05-20T00:05:32;4.22;;;2.45;;
22164;SDS011;11248;52.512;13.520;2023-05-20T00:07:58;3.10;;;2.20;;
22164;SDS011;11248;52.512;13.520;2023-05-20T00:10:24;4.22;;;2.10;;
22164;SDS011;11248;52.512;13.520;2023-05-20T00:12:51;3.33;;;2.20;;
22164;SDS011;11248;52.512;13.520;2023-05-20T00:15:17;3.50;;;2.40;;
22164;SDS011;11248;52.512;13.520;2023-05-20T00:17:43;4.30;;;2.17;;
22164;SDS011;11248;52.512;13.520;2023-05-20T00:20:10;3.00;;;2.28;;
22164;SDS011;11248;52.512;13.520;2023-05-20T00:22:36;3.97;;;2.65;;
22164;SDS011;11248;52.512;13.520;2023-05-20T00:25:02;3.63;;;2.53;;
22164;SDS011;11248;52.512;13.520;2023-05-20T00:27:28;3.90;;;2.35;;
22164;SDS011;11248;52.512;13.520;2023-05-20T00:29:54;2.78;;;2.03;;
22164;SDS011;11248;52.512;13.520;2023-05-20T00:32:21;5.95;;;2.40;;
22164;SDS011;11248;52.512;13.520;2023-05-20T00:34:56;3.42;;;2.60;;
22164;SDS011;11248;52.512;13.520;2023-05-20T00:37:23;2.97;;;2.28;;
22164;SDS011;11248;52.512;13.520;2023-05-20T00:39:49;3.78;;;2.33;;
22164;SDS011;11248;52.512;13.520;2023-05-20T00:42:22;3.50;;;1.95;;
22164;SDS011;11248;52.512;13.520;2023-05-20T00:44:48;3.47;;;2.20;;
22164;SDS011;11248;52.512;13.520;2023-05-20T00:47:18;4.18;;;2.08;;
22164;SDS011;11248;52.512;13.520;2023-05-20T00:49:45;5.45;;;2.30;;
22164;SDS011;11248;52.512;13.520;2023-05-20T00:52:11;6.53;;;2.95;;
22164;SDS011;11248;52.512;13.520;2023-05-20T00:54:39;4.35;;;2.53;;
22164;SDS011;11248;52.512;13.520;2023-05-20T00:57:05;4.75;;;2.75;;
22164;SDS011;11248;52.512;13.520;2023-05-20T00:59:32;4.22;;;2.35;;
22164;SDS011;11248;52.512;13.520;2023-05-20T01:01:59;2.95;;;2.58;;
22164;SDS011;11248;52.512;13.520;2023-05-20T01:04:25;2.65;;;2.38;;
22164;SDS011;11248;52.512;13.520;2023-05-20T01:06:52;2.83;;;2.17;;
22164;SDS011;11248;52.512;13.520;2023-05-20T01:12:26;3.42;;;2.40;;
22164;SDS011;11248;52.512;13.520;2023-05-20T01:14:55;4.35;;;2.85;;
22164;SDS011;11248;52.512;13.520;2023-05-20T01:17:26;4.60;;;2.70;;
22164;SDS011;11248;52.512;13.520;2023-05-20T01:19:55;3.65;;;2.70;;
22164;SDS011;11248;52.512;13.520;2023-05-20T01:22:25;5.05;;;2.25;;
22164;SDS011;11248;52.512;13.520;2023-05-20T01:24:51;7.95;;;2.55;;
22164;SDS011;11248;52.512;13.520;2023-05-20T01:27:18;3.95;;;2.80;;
22164;SDS011;11248;52.512;13.520;2023-05-20T01:29:44;5.03;;;2.60;;
22164;SDS011;11248;52.512;13.520;2023-05-20T01:32:18;3.85;;;2.30;;
22164;SDS011;11248;52.512;13.520;2023-05-20T01:34:46;4.43;;;2.63;;
22164;SDS011;11248;52.512;13.520;2023-05-20T01:37:13;4.32;;;2.10;;
22164;SDS011;11248;52.512;13.520;2023-05-20T01:39:40;8.88;;;2.88;;
22164;SDS011;11248;52.512;13.520;2023-05-20T01:42:06;3.70;;;2.53;;
22164;SDS011;11248;52.512;13.520;2023-05-20T01:44:33;3.22;;;2.40;;
22164;SDS011;11248;52.512;13.520;2023-05-20T01:46:59;2.92;;;2.20;;
22164;SDS011;11248;52.512;13.520;2023-05-20T01:49:25;4.43;;;2.50;;
22164;SDS011;11248;52.512;13.520;2023-05-20T01:51:52;6.72;;;2.92;;
22164;SDS011;11248;52.512;13.520;2023-05-20T01:54:18;6.40;;;3.05;;
22164;SDS011;11248;52.512;13.520;2023-05-20T01:56:45;3.85;;;2.38;;
22164;SDS011;11248;52.512;13.520;2023-05-20T01:59:11;3.58;;;2.70;;
22164;SDS011;11248;52.512;13.520;2023-05-20T02:01:37;3.63;;;2.38;;
22164;SDS011;11248;52.512;13.520;2023-05-20T02:04:03;4.03;;;2.88;;
22164;SDS011;11248;52.512;13.520;2023-05-20T02:06:29;3.83;;;2.50;;
22164;SDS011;11248;52.512;13.520;2023-05-20T02:08:56;3.40;;;2.53;;
22164;SDS011;11248;52.512;13.520;2023-05-20T02:11:22;3.17;;;2.28;;
22164;SDS011;11248;52.512;13.520;2023-05-20T02:13:48;7.00;;;3.28;;
22164;SDS011;11248;52.512;13.520;2023-05-20T02:16:15;4.25;;;2.70;;
22164;SDS011;11248;52.512;13.520;2023-05-20T02:18:41;5.78;;;2.63;;
22164;SDS011;11248;52.512;13.520;2023-05-20T02:21:08;5.50;;;2.58;;
22164;SDS011;11248;52.512;13.520;2023-05-20T02:23:34;3.72;;;2.42;;
22164;SDS011;11248;52.512;13.520;2023-05-20T02:26:00;3.92;;;2.03;;
22164;SDS011;11248;52.512;13.520;2023-05-20T02:28:26;4.43;;;2.30;;
22164;SDS011;11248;52.512;13.520;2023-05-20T02:30:52;4.28;;;2.40;;
22164;SDS011;11248;52.512;13.520;2023-05-20T02:33:18;4.40;;;2.60;;
22164;SDS011;11248;52.512;13.520;2023-05-20T02:35:45;3.92;;;2.40;;
22164;SDS011;11248;52.512;13.520;2023-05-20T02:38:11;4.43;;;2.70;;
22164;SDS011;11248;52.512;13.520;2023-05-20T02:40:38;4.15;;;2.75;;
22164;SDS011;11248;52.512;13.520;2023-05-20T02:43:04;4.57;;;2.60;;
22164;SDS011;11248;52.512;13.520;2023-05-20T02:45:30;3.60;;;2.85;;
22164;SDS011;11248;52.512;13.520;2023-05-20T02:47:56;4.60;;;2.50;;
22164;SDS011;11248;52.512;13.520;2023-05-20T02:50:22;3.33;;;2.40;;
22164;SDS011;11248;52.512;13.520;2023-05-20T02:52:49;5.15;;;2.80;;
22164;SDS011;11248;52.512;13.520;2023-05-20T02:55:16;3.90;;;2.58;;
22164;SDS011;11248;52.512;13.520;2023-05-20T02:57:42;3.72;;;2.60;;
22164;SDS011;11248;52.512;13.520;2023-05-20T03:00:09;4.97;;;3.25;;
22164;SDS011;11248;52.512;13.520;2023-05-20T03:02:36;4.25;;;2.90;;
22164;SDS011;11248;52.512;13.520;2023-05-20T03:05:02;6.32;;;3.05;;
22164;SDS011;11248;52.512;13.520;2023-05-20T03:07:29;5.22;;;2.63;;
22164;SDS011;11248;52.512;13.520;2023-05-20T03:09:56;3.75;;;2.17;;
22164;SDS011;11248;52.512;13.520;2023-05-20T03:12:26;3.03;;;2.30;;
22164;SDS011;11248;52.512;13.520;2023-05-20T03:14:52;4.22;;;2.50;;
22164;SDS011;11248;52.512;13.520;2023-05-20T03:17:22;4.97;;;2.70;;
22164;SDS011;11248;52.512;13.520;2023-05-20T03:19:48;4.05;;;2.63;;
22164;SDS011;11248;52.512;13.520;2023-05-20T03:22:14;4.38;;;2.97;;
22164;SDS011;11248;52.512;13.520;2023-05-20T03:24:40;3.33;;;2.20;;
22164;SDS011;11248;52.512;13.520;2023-05-20T03:27:08;2.97;;;2.33;;
22164;SDS011;11248;52.512;13.520;2023-05-20T03:29:34;4.35;;;2.80;;
22164;SDS011;11248;52.512;13.520;2023-05-20T03:32:00;4.05;;;2.85;;
22164;SDS011;11248;52.512;13.520;2023-05-20T03:34:26;4.43;;;3.05;;
22164;SDS011;11248;52.512;13.520;2023-05-20T03:36:54;3.47;;;2.47;;
22164;SDS011;11248;52.512;13.520;2023-05-20T03:39:21;3.40;;;2.50;;
22164;SDS011;11248;52.512;13.520;2023-05-20T03:41:47;4.13;;;2.50;;
22164;SDS011;11248;52.512;13.520;2023-05-20T03:44:13;3.65;;;2.97;;
22164;SDS011;11248;52.512;13.520;2023-05-20T03:46:39;4.22;;;2.65;;
22164;SDS011;11248;52.512;13.520;2023-05-20T03:49:06;4.60;;;2.65;;
22164;SDS011;11248;52.512;13.520;2023-05-20T03:51:32;3.85;;;2.53;;
22164;SDS011;11248;52.512;13.520;2023-05-20T03:53:58;5.82;;;2.58;;
22164;SDS011;11248;52.512;13.520;2023-05-20T03:56:25;3.35;;;2.42;;
22164;SDS011;11248;52.512;13.520;2023-05-20T03:58:51;6.50;;;2.88;;
22164;SDS011;11248;52.512;13.520;2023-05-20T04:01:17;4.75;;;2.83;;
22164;SDS011;11248;52.512;13.520;2023-05-20T04:03:45;3.40;;;2.42;;
22164;SDS011;11248;52.512;13.520;2023-05-20T04:06:12;7.57;;;3.47;;
22164;SDS011;11248;52.512;13.520;2023-05-20T04:08:38;4.60;;;3.03;;
22164;SDS011;11248;52.512;13.520;2023-05-20T04:11:05;4.78;;;2.80;;
22164;SDS011;11248;52.512;13.520;2023-05-20T04:13:31;4.03;;;2.60;;
22164;SDS011;11248;52.512;13.520;2023-05-20T04:15:57;5.10;;;3.10;;
22164;SDS011;11248;52.512;13.520;2023-05-20T04:18:25;3.53;;;2.63;;
22164;SDS011;11248;52.512;13.520;2023-05-20T04:20:55;3.60;;;2.50;;
22164;SDS011;11248;52.512;13.520;2023-05-20T04:23:21;4.65;;;2.88;;
22164;SDS011;11248;52.512;13.520;2023-05-20T04:25:48;2.83;;;2.53;;
22164;SDS011;11248;52.512;13.520;2023-05-20T04:28:14;4.95;;;2.50;;
22164;SDS011;11248;52.512;13.520;2023-05-20T04:30:41;4.15;;;3.05;;
22164;SDS011;11248;52.512;13.520;2023-05-20T04:33:09;4.57;;;2.85;;
22164;SDS011;11248;52.512;13.520;2023-05-20T04:35:35;5.15;;;2.90;;
22164;SDS011;11248;52.512;13.520;2023-05-20T04:38:02;4.53;;;2.88;;
22164;SDS011;11248;52.512;13.520;2023-05-20T04:40:28;4.57;;;2.85;;
22164;SDS011;11248;52.512;13.520;2023-05-20T04:42:54;2.95;;;2.53;;
22164;SDS011;11248;52.512;13.520;2023-05-20T04:45:22;5.88;;;2.80;;
22164;SDS011;11248;52.512;13.520;2023-05-20T04:47:49;6.50;;;3.42;;
22164;SDS011;11248;52.512;13.520;2023-05-20T04:50:17;4.93;;;2.95;;
22164;SDS011;11248;52.512;13.520;2023-05-20T04:52:43;5.32;;;2.90;;
22164;SDS011;11248;52.512;13.520;2023-05-20T04:55:10;3.92;;;2.92;;
22164;SDS011;11248;52.512;13.520;2023-05-20T04:57:37;3.83;;;3.00;;
22164;SDS011;11248;52.512;13.520;2023-05-20T05:00:06;4.40;;;2.90;;
22164;SDS011;11248;52.512;13.520;2023-05-20T05:02:33;4.45;;;2.80;;
22164;SDS011;11248;52.512;13.520;2023-05-20T05:04:59;5.20;;;3.25;;
22164;SDS011;11248;52.512;13.520;2023-05-20T05:07:25;9.13;;;3.20;;
22164;SDS011;11248;52.512;13.520;2023-05-20T05:09:51;5.60;;;2.90;;
22164;SDS011;11248;52.512;13.520;2023-05-20T05:12:17;5.35;;;3.08;;
22164;SDS011;11248;52.512;13.520;2023-05-20T05:14:43;4.78;;;2.97;;
22164;SDS011;11248;52.512;13.520;2023-05-20T05:17:09;5.88;;;3.30;;
22164;SDS011;11248;52.512;13.520;2023-05-20T05:19:36;4.45;;;3.03;;
22164;SDS011;11248;52.512;13.520;2023-05-20T05:22:02;3.53;;;2.97;;
22164;SDS011;11248;52.512;13.520;2023-05-20T05:24:28;6.90;;;3.40;;
22164;SDS011;11248;52.512;13.520;2023-05-20T05:26:55;7.50;;;3.10;;
22164;SDS011;11248;52.512;13.520;2023-05-20T05:29:21;4.72;;;2.97;;
22164;SDS011;11248;52.512;13.520;2023-05-20T05:31:47;4.63;;;3.13;;
22164;SDS011;11248;52.512;13.520;2023-05-20T05:34:13;4.40;;;2.88;;
22164;SDS011;11248;52.512;13.520;2023-05-20T05:36:39;6.47;;;3.38;;
22164;SDS011;11248;52.512;13.520;2023-05-20T05:39:06;4.88;;;3.42;;
22164;SDS011;11248;52.512;13.520;2023-05-20T05:41:32;6.53;;;3.40;;
22164;SDS011;11248;52.512;13.520;2023-05-20T05:43:59;6.85;;;3.50;;
22164;SDS011;11248;52.512;13.520;2023-05-20T05:46:26;9.63;;;3.65;;
22164;SDS011;11248;52.512;13.520;2023-05-20T05:48:52;7.78;;;4.15;;
22164;SDS011;11248;52.512;13.520;2023-05-20T05:51:18;5.57;;;3.83;;
22164;SDS011;11248;52.512;13.520;2023-05-20T05:53:44;4.65;;;3.45;;
22164;SDS011;11248;52.512;13.520;2023-05-20T05:56:10;5.55;;;3.55;;
22164;SDS011;11248;52.512;13.520;2023-05-20T05:58:37;5.25;;;3.70;;
22164;SDS011;11248;52.512;13.520;2023-05-20T06:01:03;6.90;;;3.72;;
22164;SDS011;11248;52.512;13.520;2023-05-20T06:03:30;5.80;;;4.07;;
22164;SDS011;11248;52.512;13.520;2023-05-20T06:05:56;5.65;;;3.47;;
22164;SDS011;11248;52.512;13.520;2023-05-20T06:08:22;5.10;;;3.55;;
22164;SDS011;11248;52.512;13.520;2023-05-20T06:10:48;8.20;;;3.88;;
22164;SDS011;11248;52.512;13.520;2023-05-20T06:13:15;8.23;;;3.72;;
22164;SDS011;11248;52.512;13.520;2023-05-20T06:15:41;4.55;;;3.38;;
22164;SDS011;11248;52.512;13.520;2023-05-20T06:18:10;6.05;;;3.88;;
22164;SDS011;11248;52.512;13.520;2023-05-20T06:20:36;8.70;;;3.95;;
22164;SDS011;11248;52.512;13.520;2023-05-20T06:26:06;11.43;;;4.50;;
22164;SDS011;11248;52.512;13.520;2023-05-20T06:28:32;6.70;;;3.92;;
22164;SDS011;11248;52.512;13.520;2023-05-20T06:30:58;5.95;;;3.35;;
22164;SDS011;11248;52.512;13.520;2023-05-20T06:33:25;5.25;;;3.47;;
22164;SDS011;11248;52.512;13.520;2023-05-20T06:35:52;7.60;;;4.25;;
22164;SDS011;11248;52.512;13.520;2023-05-20T06:38:18;5.88;;;3.65;;
22164;SDS011;11248;52.512;13.520;2023-05-20T06:40:45;7.28;;;4.03;;
22164;SDS011;11248;52.512;13.520;2023-05-20T06:43:11;8.07;;;3.47;;
22164;SDS011;11248;52.512;13.520;2023-05-20T06:45:37;5.60;;;3.35;;
22164;SDS011;11248;52.512;13.520;2023-05-20T06:51:08;5.85;;;3.38;;
22164;SDS011;11248;52.512;13.520;2023-05-20T06:53:34;9.50;;;3.50;;
22164;SDS011;11248;52.512;13.520;2023-05-20T06:56:00;9.88;;;3.28;;
22164;SDS011;11248;52.512;13.520;2023-05-20T06:58:27;5.47;;;3.63;;
22164;SDS011;11248;52.512;13.520;2023-05-20T07:00:53;7.15;;;3.40;;
22164;SDS011;11248;52.512;13.520;2023-05-20T07:03:19;4.95;;;3.58;;
22164;SDS011;11248;52.512;13.520;2023-05-20T07:05:45;6.90;;;3.70;;
22164;SDS011;11248;52.512;13.520;2023-05-20T07:08:12;6.32;;;3.10;;
22164;SDS011;11248;52.512;13.520;2023-05-20T07:10:38;4.80;;;3.25;;
22164;SDS011;11248;52.512;13.520;2023-05-20T07:13:05;5.75;;;3.60;;
22164;SDS011;11248;52.512;13.520;2023-05-20T07:15:31;5.82;;;3.60;;
22164;SDS011;11248;52.512;13.520;2023-05-20T07:17:57;4.68;;;3.38;;
22164;SDS011;11248;52.512;13.520;2023-05-20T07:20:23;5.35;;;3.42;;
22164;SDS011;11248;52.512;13.520;2023-05-20T07:22:49;7.70;;;3.38;;
22164;SDS011;11248;52.512;13.520;2023-05-20T07:25:15;7.60;;;4.07;;
22164;SDS011;11248;52.512;13.520;2023-05-20T07:27:41;5.90;;;3.20;;
22164;SDS011;11248;52.512;13.520;2023-05-20T07:30:08;6.55;;;3.75;;
22164;SDS011;11248;52.512;13.520;2023-05-20T07:32:34;6.18;;;3.35;;
22164;SDS011;11248;52.512;13.520;2023-05-20T07:35:00;5.25;;;3.72;;
22164;SDS011;11248;52.512;13.520;2023-05-20T07:37:26;4.70;;;3.25;;
22164;SDS011;11248;52.512;13.520;2023-05-20T07:39:52;5.03;;;3.10;;
22164;SDS011;11248;52.512;13.520;2023-05-20T07:42:19;4.55;;;3.40;;
22164;SDS011;11248;52.512;13.520;2023-05-20T07:44:45;9.23;;;3.60;;
22164;SDS011;11248;52.512;13.520;2023-05-20T07:47:12;6.28;;;3.53;;
22164;SDS011;11248;52.512;13.520;2023-05-20T07:49:38;6.95;;;3.70;;
22164;SDS011;11248;52.512;13.520;2023-05-20T07:52:05;7.28;;;3.92;;
22164;SDS011;11248;52.512;13.520;2023-05-20T07:54:31;5.47;;;3.47;;
22164;SDS011;11248;52.512;13.520;2023-05-20T07:56:57;6.95;;;3.78;;
22164;SDS011;11248;52.512;13.520;2023-05-20T07:59:25;8.75;;;3.72;;
22164;SDS011;11248;52.512;13.520;2023-05-20T08:01:51;7.55;;;3.65;;
22164;SDS011;11248;52.512;13.520;2023-05-20T08:04:18;4.38;;;3.10;;
22164;SDS011;11248;52.512;13.520;2023-05-20T08:06:44;5.25;;;3.22;;
22164;SDS011;11248;52.512;13.520;2023-05-20T08:09:10;6.68;;;3.40;;
22164;SDS011;11248;52.512;13.520;2023-05-20T08:11:37;4.78;;;3.35;;
22164;SDS011;11248;52.512;13.520;2023-05-20T08:14:03;6.45;;;3.92;;
22164;SDS011;11248;52.512;13.520;2023-05-20T08:16:29;5.90;;;3.65;;
22164;SDS011;11248;52.512;13.520;2023-05-20T08:18:55;4.00;;;3.13;;
22164;SDS011;11248;52.512;13.520;2023-05-20T08:21:21;4.53;;;3.25;;
22164;SDS011;11248;52.512;13.520;2023-05-20T08:23:47;8.82;;;3.75;;
22164;SDS011;11248;52.512;13.520;2023-05-20T08:26:13;4.20;;;3.13;;
22164;SDS011;11248;52.512;13.520;2023-05-20T08:28:40;3.72;;;2.97;;
22164;SDS011;11248;52.512;13.520;2023-05-20T08:31:07;6.63;;;3.40;;
22164;SDS011;11248;52.512;13.520;2023-05-20T08:33:33;5.50;;;3.60;;
22164;SDS011;11248;52.512;13.520;2023-05-20T08:36:00;5.72;;;2.90;;
22164;SDS011;11248;52.512;13.520;2023-05-20T08:38:26;7.45;;;3.38;;
22164;SDS011;11248;52.512;13.520;2023-05-20T08:40:54;4.30;;;3.28;;
22164;SDS011;11248;52.512;13.520;2023-05-20T08:43:20;4.40;;;3.10;;
22164;SDS011;11248;52.512;13.520;2023-05-20T08:45:47;3.35;;;2.80;;
22164;SDS011;11248;52.512;13.520;2023-05-20T08:48:16;3.85;;;2.90;;
22164;SDS011;11248;52.512;13.520;2023-05-20T08:50:50;6.30;;;3.53;;
22164;SDS011;11248;52.512;13.520;2023-05-20T08:53:17;5.40;;;2.70;;
22164;SDS011;11248;52.512;13.520;2023-05-20T08:58:20;3.30;;;2.78;;
22164;SDS011;11248;52.512;13.520;2023-05-20T09:00:47;6.30;;;3.03;;
22164;SDS011;11248;52.512;13.520;2023-05-20T09:03:13;7.18;;;3.17;;
22164;SDS011;11248;52.512;13.520;2023-05-20T09:05:40;5.68;;;3.22;;
22164;SDS011;11248;52.512;13.520;2023-05-20T09:08:06;4.43;;;3.00;;
22164;SDS011;11248;52.512;13.520;2023-05-20T09:10:33;3.65;;;2.92;;
22164;SDS011;11248;52.512;13.520;2023-05-20T09:13:00;6.18;;;3.90;;
22164;SDS011;11248;52.512;13.520;2023-05-20T09:15:28;7.13;;;3.95;;
22164;SDS011;11248;52.512;13.520;2023-05-20T09:17:54;6.13;;;3.83;;
22164;SDS011;11248;52.512;13.520;2023-05-20T09:20:21;6.10;;;4.05;;
22164;SDS011;11248;52.512;13.520;2023-05-20T09:22:49;7.75;;;4.13;;
22164;SDS011;11248;52.512;13.520;2023-05-20T09:25:20;5.72;;;4.10;;
22164;SDS011;11248;52.512;13.520;2023-05-20T09:27:50;6.13;;;3.85;;
22164;SDS011;11248;52.512;13.520;2023-05-20T09:30:20;6.63;;;4.03;;
22164;SDS011;11248;52.512;13.520;2023-05-20T09:32:56;5.72;;;4.03;;
22164;SDS011;11248;52.512;13.520;2023-05-20T09:35:23;6.38;;;4.47;;
22164;SDS011;11248;52.512;13.520;2023-05-20T09:37:54;8.45;;;4.70;;
22164;SDS011;11248;52.512;13.520;2023-05-20T09:40:27;6.63;;;4.70;;
22164;SDS011;11248;52.512;13.520;2023-05-20T09:43:04;8.25;;;4.85;;
22164;SDS011;11248;52.512;13.520;2023-05-20T09:45:36;8.77;;;4.78;;
22164;SDS011;11248;52.512;13.520;2023-05-20T09:48:03;6.93;;;4.43;;
22164;SDS011;11248;52.512;13.520;2023-05-20T09:50:31;6.45;;;4.38;;
22164;SDS011;11248;52.512;13.520;2023-05-20T09:53:00;7.55;;;4.93;;
22164;SDS011;11248;52.512;13.520;2023-05-20T09:55:27;7.88;;;4.80;;
22164;SDS011;11248;52.512;13.520;2023-05-20T09:57:56;7.30;;;4.97;;
22164;SDS011;11248;52.512;13.520;2023-05-20T10:00:23;6.75;;;4.57;;
22164;SDS011;11248;52.512;13.520;2023-05-20T10:02:50;7.20;;;4.80;;
22164;SDS011;11248;52.512;13.520;2023-05-20T10:05:20;9.95;;;5.15;;
22164;SDS011;11248;52.512;13.520;2023-05-20T10:20:20;6.93;;;4.45;;
22164;SDS011;11248;52.512;13.520;2023-05-20T10:22:53;5.43;;;4.32;;
22164;SDS011;11248;52.512;13.520;2023-05-20T10:27:47;9.30;;;5.53;;
22164;SDS011;11248;52.512;13.520;2023-05-20T10:30:20;7.00;;;5.13;;
22164;SDS011;11248;52.512;13.520;2023-05-20T10:32:53;7.05;;;4.70;;
22164;SDS011;11248;52.512;13.520;2023-05-20T10:37:47;6.00;;;4.65;;
22164;SDS011;11248;52.512;13.520;2023-05-20T10:40:13;7.82;;;5.13;;
22164;SDS011;11248;52.512;13.520;2023-05-20T10:42:40;5.68;;;4.40;;
22164;SDS011;11248;52.512;13.520;2023-05-20T10:45:07;6.40;;;4.63;;
22164;SDS011;11248;52.512;13.520;2023-05-20T10:47:33;6.60;;;5.30;;
22164;SDS011;11248;52.512;13.520;2023-05-20T10:49:59;9.73;;;5.32;;
22164;SDS011;11248;52.512;13.520;2023-05-20T10:52:26;8.25;;;5.05;;
22164;SDS011;11248;52.512;13.520;2023-05-20T10:54:55;7.47;;;4.85;;
22164;SDS011;11248;52.512;13.520;2023-05-20T10:57:22;6.90;;;4.60;;
22164;SDS011;11248;52.512;13.520;2023-05-20T10:59:48;5.82;;;4.57;;
22164;SDS011;11248;52.512;13.520;2023-05-20T11:02:15;8.55;;;5.20;;
22164;SDS011;11248;52.512;13.520;2023-05-20T11:04:42;7.20;;;5.20;;
22164;SDS011;11248;52.512;13.520;2023-05-20T11:07:09;7.43;;;4.95;;
22164;SDS011;11248;52.512;13.520;2023-05-20T11:09:35;5.53;;;4.13;;
22164;SDS011;11248;52.512;13.520;2023-05-20T11:12:01;7.93;;;4.60;;
22164;SDS011;11248;52.512;13.520;2023-05-20T11:14:28;10.40;;;5.05;;
22164;SDS011;11248;52.512;13.520;2023-05-20T11:16:58;8.90;;;5.65;;
22164;SDS011;11248;52.512;13.520;2023-05-20T11:19:25;6.78;;;4.38;;
22164;SDS011;11248;52.512;13.520;2023-05-20T11:21:51;7.78;;;4.85;;
22164;SDS011;11248;52.512;13.520;2023-05-20T11:24:27;6.90;;;4.85;;
22164;SDS011;11248;52.512;13.520;2023-05-20T11:26:54;8.40;;;5.30;;
22164;SDS011;11248;52.512;13.520;2023-05-20T11:29:21;6.03;;;4.70;;
22164;SDS011;11248;52.512;13.520;2023-05-20T11:31:48;10.63;;;5.70;;
22164;SDS011;11248;52.512;13.520;2023-05-20T11:34:20;8.90;;;5.15;;
22164;SDS011;11248;52.512;13.520;2023-05-20T11:36:47;6.65;;;4.45;;
22164;SDS011;11248;52.512;13.520;2023-05-20T11:39:16;10.15;;;5.30;;
22164;SDS011;11248;52.512;13.520;2023-05-20T11:41:42;6.55;;;4.80;;
22164;SDS011;11248;52.512;13.520;2023-05-20T11:44:09;8.13;;;5.00;;
22164;SDS011;11248;52.512;13.520;2023-05-20T11:46:45;7.70;;;4.78;;
22164;SDS011;11248;52.512;13.520;2023-05-20T11:49:14;7.38;;;5.03;;
22164;SDS011;11248;52.512;13.520;2023-05-20T11:51:41;8.80;;;5.15;;
22164;SDS011;11248;52.512;13.520;2023-05-20T11:54:08;8.23;;;4.90;;
22164;SDS011;11248;52.512;13.520;2023-05-20T11:56:37;10.65;;;5.35;;
22164;SDS011;11248;52.512;13.520;2023-05-20T11:59:05;9.55;;;4.75;;
22164;SDS011;11248;52.512;13.520;2023-05-20T12:01:33;7.32;;;4.60;;
22164;SDS011;11248;52.512;13.520;2023-05-20T12:04:06;7.97;;;4.97;;
22164;SDS011;11248;52.512;13.520;2023-05-20T12:06:33;9.23;;;5.38;;
22164;SDS011;11248;52.512;13.520;2023-05-20T12:09:01;8.77;;;5.38;;
22164;SDS011;11248;52.512;13.520;2023-05-20T12:11:35;7.22;;;4.90;;
22164;SDS011;11248;52.512;13.520;2023-05-20T12:14:04;8.07;;;4.47;;
22164;SDS011;11248;52.512;13.520;2023-05-20T12:16:31;7.65;;;5.05;;
22164;SDS011;11248;52.512;13.520;2023-05-20T12:18:58;7.30;;;4.95;;
22164;SDS011;11248;52.512;13.520;2023-05-20T12:21:25;7.60;;;5.47;;
22164;SDS011;11248;52.512;13.520;2023-05-20T12:23:51;8.13;;;5.40;;
22164;SDS011;11248;52.512;13.520;2023-05-20T12:26:24;16.50;;;4.88;;
22164;SDS011;11248;52.512;13.520;2023-05-20T12:31:54;7.13;;;4.50;;
22164;SDS011;11248;52.512;13.520;2023-05-20T12:34:20;5.47;;;4.30;;
22164;SDS011;11248;52.512;13.520;2023-05-20T12:36:46;6.40;;;4.65;;
22164;SDS011;11248;52.512;13.520;2023-05-20T12:39:13;7.68;;;4.65;;
22164;SDS011;11248;52.512;13.520;2023-05-20T12:41:41;7.20;;;4.80;;
22164;SDS011;11248;52.512;13.520;2023-05-20T12:44:08;6.80;;;4.72;;
22164;SDS011;11248;52.512;13.520;2023-05-20T12:46:35;6.90;;;5.50;;
22164;SDS011;11248;52.512;13.520;2023-05-20T12:49:02;8.13;;;4.43;;
22164;SDS011;11248;52.512;13.520;2023-05-20T12:51:28;6.22;;;4.40;;
22164;SDS011;11248;52.512;13.520;2023-05-20T12:53:55;11.43;;;4.88;;
22164;SDS011;11248;52.512;13.520;2023-05-20T12:56:21;6.65;;;4.72;;
22164;SDS011;11248;52.512;13.520;2023-05-20T12:58:47;7.43;;;5.00;;
22164;SDS011;11248;52.512;13.520;2023-05-20T13:01:14;6.60;;;4.95;;
22164;SDS011;11248;52.512;13.520;2023-05-20T13:03:40;8.43;;;5.60;;
22164;SDS011;11248;52.512;13.520;2023-05-20T13:06:06;9.05;;;5.55;;
22164;SDS011;11248;52.512;13.520;2023-05-20T13:08:32;10.68;;;5.15;;
22164;SDS011;11248;52.512;13.520;2023-05-20T13:10:58;10.70;;;5.07;;
22164;SDS011;11248;52.512;13.520;2023-05-20T13:13:25;5.43;;;4.35;;
22164;SDS011;11248;52.512;13.520;2023-05-20T13:15:51;7.80;;;4.68;;
22164;SDS011;11248;52.512;13.520;2023-05-20T13:18:17;6.68;;;5.18;;
22164;SDS011;11248;52.512;13.520;2023-05-20T13:20:44;7.75;;;4.43;;
22164;SDS011;11248;52.512;13.520;2023-05-20T13:23:10;5.90;;;4.40;;
22164;SDS011;11248;52.512;13.520;2023-05-20T13:25:36;6.35;;;4.90;;
22164;SDS011;11248;52.512;13.520;2023-05-20T13:28:06;4.82;;;4.10;;
22164;SDS011;11248;52.512;13.520;2023-05-20T13:30:32;4.82;;;4.25;;
22164;SDS011;11248;52.512;13.520;2023-05-20T13:32:59;6.90;;;5.30;;
22164;SDS011;11248;52.512;13.520;2023-05-20T13:35:25;13.95;;;5.18;;
22164;SDS011;11248;52.512;13.520;2023-05-20T13:37:51;9.13;;;4.65;;
22164;SDS011;11248;52.512;13.520;2023-05-20T13:40:17;4.40;;;4.00;;
22164;SDS011;11248;52.512;13.520;2023-05-20T13:42:43;4.70;;;4.10;;
22164;SDS011;11248;52.512;13.520;2023-05-20T13:45:09;10.75;;;4.25;;
22164;SDS011;11248;52.512;13.520;2023-05-20T13:47:36;7.82;;;4.63;;
22164;SDS011;11248;52.512;13.520;2023-05-20T13:50:02;5.47;;;4.28;;
22164;SDS011;11248;52.512;13.520;2023-05-20T13:52:28;5.88;;;4.45;;
22164;SDS011;11248;52.512;13.520;2023-05-20T13:54:54;8.68;;;4.65;;
22164;SDS011;11248;52.512;13.520;2023-05-20T13:57:20;6.97;;;4.38;;
22164;SDS011;11248;52.512;13.520;2023-05-20T13:59:47;7.07;;;4.57;;
22164;SDS011;11248;52.512;13.520;2023-05-20T14:02:13;5.65;;;4.75;;
22164;SDS011;11248;52.512;13.520;2023-05-20T14:04:40;6.03;;;4.53;;
22164;SDS011;11248;52.512;13.520;2023-05-20T14:07:08;5.78;;;4.30;;
22164;SDS011;11248;52.512;13.520;2023-05-20T14:09:35;5.95;;;4.40;;
22164;SDS011;11248;52.512;13.520;2023-05-20T14:12:01;7.07;;;4.05;;
22164;SDS011;11248;52.512;13.520;2023-05-20T14:14:27;5.45;;;3.90;;
22164;SDS011;11248;52.512;13.520;2023-05-20T14:16:54;7.45;;;4.03;;
22164;SDS011;11248;52.512;13.520;2023-05-20T14:19:20;7.13;;;4.20;;
22164;SDS011;11248;52.512;13.520;2023-05-20T14:21:46;5.63;;;4.57;;
22164;SDS011;11248;52.512;13.520;2023-05-20T14:24:12;6.22;;;3.70;;
22164;SDS011;11248;52.512;13.520;2023-05-20T14:26:38;6.05;;;4.00;;
22164;SDS011;11248;52.512;13.520;2023-05-20T14:29:05;7.88;;;4.35;;
22164;SDS011;11248;52.512;13.520;2023-05-20T14:31:31;5.85;;;3.78;;
22164;SDS011;11248;52.512;13.520;2023-05-20T14:33:57;8.80;;;3.83;;
22164;SDS011;11248;52.512;13.520;2023-05-20T14:36:23;4.32;;;3.75;;
22164;SDS011;11248;52.512;13.520;2023-05-20T14:38:49;7.07;;;4.13;;
22164;SDS011;11248;52.512;13.520;2023-05-20T14:41:15;6.35;;;4.35;;
22164;SDS011;11248;52.512;13.520;2023-05-20T14:43:42;6.13;;;3.72;;
22164;SDS011;11248;52.512;13.520;2023-05-20T14:46:08;5.63;;;3.58;;
22164;SDS011;11248;52.512;13.520;2023-05-20T14:48:35;4.95;;;3.95;;
22164;SDS011;11248;52.512;13.520;2023-05-20T14:51:01;9.40;;;4.03;;
22164;SDS011;11248;52.512;13.520;2023-05-20T14:53:27;5.57;;;4.47;;
22164;SDS011;11248;52.512;13.520;2023-05-20T14:55:53;5.57;;;3.72;;
22164;SDS011;11248;52.512;13.520;2023-05-20T14:58:20;4.05;;;3.65;;
22164;SDS011;11248;52.512;13.520;2023-05-20T15:00:46;4.32;;;3.08;;
22164;SDS011;11248;52.512;13.520;2023-05-20T15:03:13;4.78;;;3.75;;